Etusivu
METAR-TAF:

METAR-TAF

Lentoasemat :

Austin, Texas, Yhdysvallat

Leveyspiiri: 30-24-00N, Pituuspiiri: 097-34-25W, korkeus merenpinnasta: 189 m

Tämänhetkinen sää

Tämä raportti tehtiin 28 minuuttia sitten, kello 22.35 UTC
Tuuli 11 kn etelästä
Lämpötila 23°C
Kosteus 61%
Ilmanpaine 1013 hPa
Näkyvyys: 16.1 km
selkeää

METAR: KEDC 162235Z AUTO 18011KT 10SM CLR 23/15 A2991 RMK AO2

Aika: 16:03 (23:03 UTC)


TAF: puuttuu

Säähavainnot ja -ennusteet yli 4000 lentoasemalta (METAR- ja TAF-raportit).

Käytössä olevat sääasemat on merkitty karttaan keltaisilla ja punaisilla pisteillä.

Aseta hiiri pisteen päälle nähdäksesi sääaseman nimen.

Klikkaa sitten nähdäksesi säähavainnot ja -ennusteet.

Kartan vaihtaminen: klikkaa mustalla rastilla varustettuja vihreitä pisteitä, niin voit zoomata sisään; viivalla varustettua vihreää pistettä, niin voit zoomata ulos tai vihreitä nuolia, niin pääset viereisille kartoille.


METAR-TAF: